Time;durP1;ratioP1;P1;durP2;ratioP2;P2;SDS_P1;SDS_P2;PMS_P1;PMS_P2;Temp;Humidity;BMP_temperature;BMP_pressure;BME280_temperature;BME280_humidity;BME280_pressure;Samples;Min_cycle;Max_cycle;Signal;HPM_P1;HPM_P2
2021/05/10 00:00:23;;;;;;;3.13;2.22;;;;;;;;;;5089906;28;20368;-85
2021/05/10 00:02:49;;;;;;;4.38;2.40;;;;;;;;;;5090419;28;20420;-87
2021/05/10 00:05:15;;;;;;;3.35;2.05;;;;;;;;;;5090645;28;20430;-86
2021/05/10 00:07:41;;;;;;;2.97;2.00;;;;;;;;;;5089332;28;20459;-87
2021/05/10 00:10:08;;;;;;;4.32;2.15;;;;;;;;;;5090445;28;20956;-86
2021/05/10 00:12:34;;;;;;;3.72;2.05;;;;;;;;;;5088909;28;20857;-85
2021/05/10 00:15:00;;;;;;;2.95;2.00;;;;;;;;;;5088939;28;20383;-85
2021/05/10 00:17:26;;;;;;;5.57;2.10;;;;;;;;;;5090106;28;20368;-87
2021/05/10 00:19:52;;;;;;;4.35;2.10;;;;;;;;;;5090090;28;20986;-87
2021/05/10 00:22:18;;;;;;;3.78;2.13;;;;;;;;;;5089818;28;20507;-86
2021/05/10 00:24:44;;;;;;;3.92;2.30;;;;;;;;;;5088750;28;20369;-86
2021/05/10 00:27:10;;;;;;;2.83;2.00;;;;;;;;;;5090150;28;20854;-87
2021/05/10 00:29:36;;;;;;;4.47;2.28;;;;;;;;;;5089963;28;20364;-86
2021/05/10 00:32:01;;;;;;;3.58;2.10;;;;;;;;;;5089976;28;20379;-85
2021/05/10 00:34:27;;;;;;;2.40;2.07;;;;;;;;;;5088645;28;20379;-86
2021/05/10 00:36:54;;;;;;;3.30;2.13;;;;;;;;;;5089793;28;20928;-86
2021/05/10 00:39:21;;;;;;;4.25;2.10;;;;;;;;;;5090143;28;20371;-86
2021/05/10 00:41:47;;;;;;;3.42;2.00;;;;;;;;;;5088568;28;20428;-88
2021/05/10 00:44:13;;;;;;;4.30;2.13;;;;;;;;;;5088494;28;20941;-87
2021/05/10 00:46:40;;;;;;;4.72;2.25;;;;;;;;;;5089741;28;20838;-87
2021/05/10 00:49:06;;;;;;;2.80;1.80;;;;;;;;;;5088653;28;20404;-86
2021/05/10 00:51:32;;;;;;;3.50;1.92;;;;;;;;;;5088596;28;20369;-87
2021/05/10 00:53:58;;;;;;;2.88;2.00;;;;;;;;;;5088500;28;20373;-87
2021/05/10 00:56:25;;;;;;;4.60;2.10;;;;;;;;;;5088379;28;20425;-87
2021/05/10 00:58:51;;;;;;;4.73;2.00;;;;;;;;;;5091083;28;20479;-85
2021/05/10 01:01:17;;;;;;;3.05;2.30;;;;;;;;;;5091866;28;20468;-85
2021/05/10 01:03:44;;;;;;;3.83;2.00;;;;;;;;;;5092153;28;20442;-85
2021/05/10 01:06:11;;;;;;;4.65;1.80;;;;;;;;;;5093710;28;20368;-86
2021/05/10 01:08:37;;;;;;;3.67;2.20;;;;;;;;;;5092495;28;20392;-86
2021/05/10 01:11:03;;;;;;;7.10;2.10;;;;;;;;;;5092272;28;20870;-87
2021/05/10 01:13:30;;;;;;;5.30;2.20;;;;;;;;;;5092012;28;20542;-85
2021/05/10 01:15:56;;;;;;;3.28;2.10;;;;;;;;;;5092115;28;20376;-86
2021/05/10 01:18:22;;;;;;;3.55;2.08;;;;;;;;;;5092081;28;20874;-85
2021/05/10 01:20:49;;;;;;;4.80;2.45;;;;;;;;;;5093388;28;20388;-86
2021/05/10 01:23:15;;;;;;;4.35;2.50;;;;;;;;;;5092070;28;20380;-86
2021/05/10 01:25:41;;;;;;;5.90;2.30;;;;;;;;;;5091866;28;20794;-86
2021/05/10 01:28:07;;;;;;;4.85;2.00;;;;;;;;;;5092112;28;20365;-86
2021/05/10 01:30:36;;;;;;;4.32;2.42;;;;;;;;;;5093182;28;20400;-86
2021/05/10 01:33:03;;;;;;;3.08;2.20;;;;;;;;;;5092946;28;20372;-86
2021/05/10 01:35:30;;;;;;;3.50;2.17;;;;;;;;;;5092847;28;20374;-86
2021/05/10 01:37:56;;;;;;;3.33;2.13;;;;;;;;;;5091782;28;20380;-86
2021/05/10 01:40:22;;;;;;;3.42;2.30;;;;;;;;;;5092832;28;20372;-86
2021/05/10 01:42:48;;;;;;;2.90;2.60;;;;;;;;;;5091469;28;20404;-85
2021/05/10 01:45:15;;;;;;;3.67;2.40;;;;;;;;;;5091681;28;20380;-85
2021/05/10 01:47:41;;;;;;;3.40;2.57;;;;;;;;;;5091329;28;20383;-88
2021/05/10 01:50:10;;;;;;;3.15;2.55;;;;;;;;;;5091082;28;20785;-87
2021/05/10 01:52:36;;;;;;;4.45;2.47;;;;;;;;;;5091302;28;20382;-86
2021/05/10 01:55:02;;;;;;;4.00;2.40;;;;;;;;;;5092414;28;20368;-88
2021/05/10 01:57:28;;;;;;;6.07;2.47;;;;;;;;;;5091240;28;20715;-88
2021/05/10 01:59:54;;;;;;;3.97;2.42;;;;;;;;;;5091273;28;20383;-88
2021/05/10 02:02:20;;;;;;;4.82;2.67;;;;;;;;;;5090864;28;20400;-87
2021/05/10 02:05:04;;;;;;;3.13;2.40;;;;;;;;;;5091098;28;20375;-87
2021/05/10 02:07:30;;;;;;;4.10;2.67;;;;;;;;;;5090809;28;20735;-87
2021/05/10 02:09:57;;;;;;;3.60;2.80;;;;;;;;;;5092236;28;20375;-87
2021/05/10 02:12:23;;;;;;;4.97;2.65;;;;;;;;;;5090825;28;20377;-87
2021/05/10 02:14:48;;;;;;;5.35;2.55;;;;;;;;;;5092112;28;20357;-87
2021/05/10 02:17:14;;;;;;;3.30;2.60;;;;;;;;;;5092291;28;20463;-86
2021/05/10 02:19:40;;;;;;;5.10;2.30;;;;;;;;;;5092090;28;20451;-86
2021/05/10 02:22:06;;;;;;;4.18;2.85;;;;;;;;;;5091930;28;20509;-87
2021/05/10 02:24:36;;;;;;;4.32;3.00;;;;;;;;;;5091140;28;20387;-87
2021/05/10 02:27:03;;;;;;;4.68;2.95;;;;;;;;;;5091097;28;20711;-87
2021/05/10 02:29:29;;;;;;;3.20;2.45;;;;;;;;;;5092017;28;20387;-88
2021/05/10 02:31:55;;;;;;;3.22;2.60;;;;;;;;;;5090751;28;20838;-87
2021/05/10 02:34:21;;;;;;;4.93;2.63;;;;;;;;;;5090586;28;20408;-86
2021/05/10 02:36:47;;;;;;;4.43;2.65;;;;;;;;;;5092012;28;20457;-86
2021/05/10 02:39:13;;;;;;;7.07;2.70;;;;;;;;;;5091876;28;20846;-86
2021/05/10 02:41:39;;;;;;;4.18;2.92;;;;;;;;;;5090571;28;20376;-88
2021/05/10 02:44:05;;;;;;;4.28;2.92;;;;;;;;;;5092031;28;20380;-87
2021/05/10 02:46:32;;;;;;;3.55;2.90;;;;;;;;;;5091895;28;20841;-87
2021/05/10 02:48:58;;;;;;;2.90;2.60;;;;;;;;;;5090717;28;20382;-87
2021/05/10 02:51:24;;;;;;;4.47;2.92;;;;;;;;;;5090509;28;20468;-88
2021/05/10 02:53:50;;;;;;;5.37;2.90;;;;;;;;;;5090552;28;20402;-87
2021/05/10 02:56:16;;;;;;;4.60;2.80;;;;;;;;;;5090412;28;20895;-87
2021/05/10 02:58:42;;;;;;;4.38;2.60;;;;;;;;;;5090121;28;20388;-87
2021/05/10 03:01:08;;;;;;;4.47;2.80;;;;;;;;;;5090160;28;20471;-87
2021/05/10 03:03:34;;;;;;;5.22;2.95;;;;;;;;;;5090006;28;20389;-87
2021/05/10 03:06:00;;;;;;;3.40;2.78;;;;;;;;;;5090236;28;20715;-88
2021/05/10 03:08:26;;;;;;;5.13;2.95;;;;;;;;;;5089885;28;20810;-87
2021/05/10 03:10:53;;;;;;;5.35;2.80;;;;;;;;;;5091231;28;20369;-87
2021/05/10 03:13:19;;;;;;;5.40;2.75;;;;;;;;;;5090099;28;20392;-86
2021/05/10 03:15:45;;;;;;;3.20;2.90;;;;;;;;;;5091016;28;20404;-87
2021/05/10 03:18:11;;;;;;;5.07;3.20;;;;;;;;;;5090726;28;20402;-87
2021/05/10 03:20:37;;;;;;;4.67;3.00;;;;;;;;;;5089362;28;20369;-86
2021/05/10 03:23:03;;;;;;;5.57;3.10;;;;;;;;;;5089189;28;20482;-86
2021/05/10 03:25:29;;;;;;;4.87;3.53;;;;;;;;;;5089655;28;20722;-86
2021/05/10 03:27:55;;;;;;;5.90;2.90;;;;;;;;;;5089405;28;20475;-86
2021/05/10 03:30:22;;;;;;;5.03;3.10;;;;;;;;;;5089366;28;20364;-86
2021/05/10 03:32:49;;;;;;;3.97;2.83;;;;;;;;;;5089244;28;20846;-87
2021/05/10 03:35:15;;;;;;;4.63;3.50;;;;;;;;;;5090751;28;20718;-86
2021/05/10 03:37:42;;;;;;;6.68;3.40;;;;;;;;;;5090559;28;20421;-87
2021/05/10 03:40:09;;;;;;;3.97;2.90;;;;;;;;;;5090593;28;20414;-87
2021/05/10 03:42:35;;;;;;;4.65;3.25;;;;;;;;;;5089571;28;20403;-88
2021/05/10 03:45:01;;;;;;;3.97;3.40;;;;;;;;;;5089361;28;20423;-87
2021/05/10 03:47:39;;;;;;;6.93;3.58;;;;;;;;;;5089443;28;20369;-88
2021/05/10 03:50:06;;;;;;;6.53;3.30;;;;;;;;;;5089463;28;20384;-87
2021/05/10 03:52:32;;;;;;;27.48;4.88;;;;;;;;;;5089520;28;20373;-89
2021/05/10 03:54:58;;;;;;;8.90;3.57;;;;;;;;;;5089571;28;20375;-88
2021/05/10 03:57:24;;;;;;;7.63;3.80;;;;;;;;;;5089367;28;20383;-88
2021/05/10 03:59:50;;;;;;;6.80;3.30;;;;;;;;;;5089378;28;20780;-87
2021/05/10 04:02:16;;;;;;;23.02;4.53;;;;;;;;;;5089192;28;20534;-86
2021/05/10 04:04:47;;;;;;;22.65;4.50;;;;;;;;;;5089303;28;20528;-88
2021/05/10 04:07:26;;;;;;;12.13;3.60;;;;;;;;;;5089824;28;20387;-87
2021/05/10 04:10:34;;;;;;;6.50;3.50;;;;;;;;;;5089426;28;20380;-87
2021/05/10 04:15:40;;;;;;;4.93;2.95;;;;;;;;;;5091015;28;20510;-87
2021/05/10 04:18:06;;;;;;;6.78;3.30;;;;;;;;;;5090578;28;20910;-86
2021/05/10 04:20:32;;;;;;;8.25;2.70;;;;;;;;;;5089087;28;20372;-87
2021/05/10 04:22:58;;;;;;;7.75;3.30;;;;;;;;;;5088929;28;20396;-87
2021/05/10 04:25:25;;;;;;;4.70;2.80;;;;;;;;;;5090283;28;20373;-87
2021/05/10 04:27:51;;;;;;;5.88;2.95;;;;;;;;;;5089334;28;20372;-86
2021/05/10 04:30:17;;;;;;;3.30;2.60;;;;;;;;;;5090503;28;20463;-87
2021/05/10 04:32:43;;;;;;;5.67;2.60;;;;;;;;;;5090200;28;20451;-86
2021/05/10 04:35:09;;;;;;;5.20;2.67;;;;;;;;;;5094148;28;20913;-87
2021/05/10 04:37:35;;;;;;;4.70;2.60;;;;;;;;;;5092607;28;20373;-87
2021/05/10 04:40:01;;;;;;;7.13;2.60;;;;;;;;;;5093919;28;20467;-87
2021/05/10 04:42:27;;;;;;;5.07;2.50;;;;;;;;;;5093870;28;20436;-86
2021/05/10 04:44:53;;;;;;;3.93;2.20;;;;;;;;;;5093910;28;20449;-87
2021/05/10 04:47:19;;;;;;;3.58;2.28;;;;;;;;;;5092645;28;20411;-86
2021/05/10 04:49:45;;;;;;;2.75;2.15;;;;;;;;;;5092530;28;20372;-88
2021/05/10 04:52:11;;;;;;;3.38;2.28;;;;;;;;;;5093403;28;20843;-87
2021/05/10 04:54:37;;;;;;;20.70;3.03;;;;;;;;;;5092556;28;20399;-86
2021/05/10 04:57:04;;;;;;;4.57;2.10;;;;;;;;;;5092508;28;20369;-85
2021/05/10 04:59:29;;;;;;;4.38;2.03;;;;;;;;;;5093695;28;20445;-86
2021/05/10 05:01:55;;;;;;;4.82;2.33;;;;;;;;;;5093339;28;20885;-88
2021/05/10 05:04:21;;;;;;;3.67;2.13;;;;;;;;;;5094418;28;20384;-87
2021/05/10 05:06:47;;;;;;;4.78;2.25;;;;;;;;;;5092458;28;20379;-86
2021/05/10 05:09:13;;;;;;;2.88;1.70;;;;;;;;;;5093770;28;20430;-87
2021/05/10 05:11:39;;;;;;;3.17;2.05;;;;;;;;;;5093710;28;20364;-87
2021/05/10 05:14:05;;;;;;;4.40;2.00;;;;;;;;;;5093558;28;20402;-87
2021/05/10 05:16:31;;;;;;;3.67;2.00;;;;;;;;;;5093409;28;20396;-86
2021/05/10 05:18:58;;;;;;;3.10;1.98;;;;;;;;;;5092164;28;20750;-86
2021/05/10 05:21:24;;;;;;;4.63;2.05;;;;;;;;;;5093058;28;20384;-88
2021/05/10 05:23:50;;;;;;;3.28;1.73;;;;;;;;;;5093208;28;20456;-87
2021/05/10 05:26:16;;;;;;;4.77;2.13;;;;;;;;;;5091997;28;20514;-86
2021/05/10 05:28:42;;;;;;;3.30;1.80;;;;;;;;;;5091629;28;20377;-88
2021/05/10 05:31:08;;;;;;;6.38;2.13;;;;;;;;;;5091759;28;20369;-85
2021/05/10 05:33:34;;;;;;;3.67;2.10;;;;;;;;;;5092910;28;20367;-86
2021/05/10 05:36:00;;;;;;;9.00;2.15;;;;;;;;;;5091742;28;20425;-87
2021/05/10 05:38:30;;;;;;;5.05;2.40;;;;;;;;;;5093319;28;20372;-85
2021/05/10 05:40:56;;;;;;;4.18;2.10;;;;;;;;;;5091593;28;20392;-87
2021/05/10 05:43:22;;;;;;;7.45;2.45;;;;;;;;;;5092727;28;20384;-86
2021/05/10 05:45:48;;;;;;;3.90;1.97;;;;;;;;;;5092417;28;20379;-85
2021/05/10 05:48:14;;;;;;;3.97;2.00;;;;;;;;;;5093069;28;20734;-87
2021/05/10 05:50:40;;;;;;;7.30;2.03;;;;;;;;;;5092777;28;20376;-84
2021/05/10 05:53:06;;;;;;;6.15;1.83;;;;;;;;;;5091483;28;20373;-86
2021/05/10 05:55:32;;;;;;;3.92;2.00;;;;;;;;;;5092618;28;20471;-86
2021/05/10 05:57:59;;;;;;;5.40;2.08;;;;;;;;;;5091589;28;20373;-86
2021/05/10 06:00:25;;;;;;;6.67;1.97;;;;;;;;;;5092538;28;20904;-85
2021/05/10 06:02:51;;;;;;;3.10;2.00;;;;;;;;;;5092080;28;20873;-86
2021/05/10 06:05:17;;;;;;;5.32;1.92;;;;;;;;;;5092369;28;20377;-86
2021/05/10 06:07:43;;;;;;;5.43;2.00;;;;;;;;;;5090988;28;20407;-85
2021/05/10 06:10:11;;;;;;;2.63;1.80;;;;;;;;;;5091053;28;20463;-85
2021/05/10 06:12:38;;;;;;;4.07;1.70;;;;;;;;;;5092827;28;20847;-85
2021/05/10 06:15:04;;;;;;;2.55;1.85;;;;;;;;;;5092420;28;20391;-87
2021/05/10 06:17:30;;;;;;;5.35;2.03;;;;;;;;;;5092138;28;20417;-84
2021/05/10 06:19:57;;;;;;;5.80;1.90;;;;;;;;;;5091229;28;20859;-87
2021/05/10 06:22:23;;;;;;;6.70;2.05;;;;;;;;;;5090980;28;20396;-88
2021/05/10 06:24:49;;;;;;;3.80;1.83;;;;;;;;;;5091110;28;20715;-85
2021/05/10 06:27:15;;;;;;;3.25;1.80;;;;;;;;;;5092244;28;20368;-86
2021/05/10 06:29:41;;;;;;;7.25;1.90;;;;;;;;;;5092584;28;20353;-84
2021/05/10 06:32:07;;;;;;;5.30;1.80;;;;;;;;;;5095772;28;20368;-85
2021/05/10 06:34:33;;;;;;;6.03;1.85;;;;;;;;;;5097077;28;20367;-84
2021/05/10 06:36:59;;;;;;;3.00;1.75;;;;;;;;;;5101049;28;20369;-84
2021/05/10 06:39:25;;;;;;;4.30;2.00;;;;;;;;;;5096750;28;20406;-84
2021/05/10 06:41:51;;;;;;;4.18;1.80;;;;;;;;;;5094972;28;20427;-80
2021/05/10 06:44:17;;;;;;;2.75;1.88;;;;;;;;;;5091527;28;20885;-80
2021/05/10 06:46:43;;;;;;;4.60;1.90;;;;;;;;;;5091481;28;20459;-85
2021/05/10 06:49:09;;;;;;;12.88;2.10;;;;;;;;;;5090060;28;20369;-80
2021/05/10 06:51:35;;;;;;;4.57;2.13;;;;;;;;;;5091226;28;20376;-82
2021/05/10 06:54:01;;;;;;;5.40;1.95;;;;;;;;;;5091282;28;20799;-80
2021/05/10 06:56:27;;;;;;;3.13;1.70;;;;;;;;;;5090592;28;20391;-82
2021/05/10 06:58:53;;;;;;;3.43;1.87;;;;;;;;;;5091165;28;20401;-82
2021/05/10 07:01:19;;;;;;;7.72;2.00;;;;;;;;;;5090868;28;20795;-80
2021/05/10 07:03:44;;;;;;;6.22;2.20;;;;;;;;;;5091026;28;20385;-85
2021/05/10 07:06:10;;;;;;;2.42;1.88;;;;;;;;;;5090404;28;20718;-85
2021/05/10 07:08:37;;;;;;;6.70;2.45;;;;;;;;;;5091270;28;20400;-87
2021/05/10 07:11:03;;;;;;;15.13;2.87;;;;;;;;;;5089758;28;20437;-87
2021/05/10 07:13:29;;;;;;;14.27;2.60;;;;;;;;;;5089955;28;20368;-87
2021/05/10 07:15:56;;;;;;;4.45;1.95;;;;;;;;;;5089868;28;21006;-86
2021/05/10 07:18:22;;;;;;;5.68;2.28;;;;;;;;;;5089890;28;20381;-86
2021/05/10 07:20:48;;;;;;;3.78;1.65;;;;;;;;;;5089902;28;20377;-85
2021/05/10 07:23:16;;;;;;;7.50;1.93;;;;;;;;;;5089549;28;20395;-88
2021/05/10 07:25:43;;;;;;;3.92;1.95;;;;;;;;;;5089777;28;20373;-87
2021/05/10 07:28:09;;;;;;;9.25;2.17;;;;;;;;;;5089834;28;20369;-85
2021/05/10 07:30:36;;;;;;;11.27;3.08;;;;;;;;;;5089844;28;20718;-87
2021/05/10 07:33:02;;;;;;;4.28;2.00;;;;;;;;;;5089838;28;20467;-80
2021/05/10 07:35:28;;;;;;;4.00;1.60;;;;;;;;;;5100188;28;20398;-85
2021/05/10 07:37:54;;;;;;;26.95;3.90;;;;;;;;;;5098287;28;20364;-81
2021/05/10 07:40:23;;;;;;;10.63;2.45;;;;;;;;;;5095780;28;20387;-81
2021/05/10 07:42:49;;;;;;;4.40;1.75;;;;;;;;;;5101205;28;20407;-91
2021/05/10 07:45:15;;;;;;;6.85;2.17;;;;;;;;;;5097518;28;20384;-88
2021/05/10 07:47:43;;;;;;;79.47;8.23;;;;;;;;;;5088476;28;20387;-86
2021/05/10 07:50:09;;;;;;;10.57;2.57;;;;;;;;;;5089065;28;20467;-87
2021/05/10 07:52:35;;;;;;;5.32;2.00;;;;;;;;;;5086924;28;20373;-87
2021/05/10 07:55:01;;;;;;;14.80;2.90;;;;;;;;;;5089570;28;20375;-88
2021/05/10 07:57:27;;;;;;;6.03;2.08;;;;;;;;;;5089126;28;20368;-87
2021/05/10 07:59:54;;;;;;;3.97;2.05;;;;;;;;;;5089426;28;20932;-87
2021/05/10 08:02:23;;;;;;;4.15;1.90;;;;;;;;;;5088381;28;20827;-87
2021/05/10 08:04:49;;;;;;;5.68;2.40;;;;;;;;;;5089014;28;20699;-88
2021/05/10 08:07:16;;;;;;;3.58;2.00;;;;;;;;;;5086911;28;20422;-87
2021/05/10 08:09:42;;;;;;;4.80;2.03;;;;;;;;;;5091723;28;20388;-88
2021/05/10 08:12:08;;;;;;;3.03;1.95;;;;;;;;;;5093297;28;20417;-85
2021/05/10 08:14:35;;;;;;;6.60;2.30;;;;;;;;;;5093427;28;20384;-86
2021/05/10 08:17:01;;;;;;;5.90;1.92;;;;;;;;;;5092382;28;20376;-89
2021/05/10 08:19:27;;;;;;;6.00;1.95;;;;;;;;;;5092948;28;20380;-86
2021/05/10 08:21:54;;;;;;;5.70;2.20;;;;;;;;;;5092164;28;20404;-85
2021/05/10 08:24:20;;;;;;;10.45;2.42;;;;;;;;;;5092025;28;20388;-87
2021/05/10 08:26:47;;;;;;;5.07;2.15;;;;;;;;;;5092126;28;20807;-86
2021/05/10 08:29:13;;;;;;;6.38;2.13;;;;;;;;;;5092643;28;20391;-86
2021/05/10 08:31:43;;;;;;;17.08;3.25;;;;;;;;;;5094156;28;20866;-88
2021/05/10 08:34:10;;;;;;;4.20;2.10;;;;;;;;;;5093263;28;20419;-89
2021/05/10 08:36:36;;;;;;;4.80;1.98;;;;;;;;;;5092322;28;20893;-86
2021/05/10 08:39:04;;;;;;;5.55;2.00;;;;;;;;;;5093760;28;20384;-85
2021/05/10 08:41:30;;;;;;;4.45;2.13;;;;;;;;;;5093320;28;20396;-89
2021/05/10 08:43:58;;;;;;;5.83;2.00;;;;;;;;;;5094498;28;20796;-86
2021/05/10 08:46:24;;;;;;;3.25;2.00;;;;;;;;;;5094009;28;20368;-88
2021/05/10 08:48:53;;;;;;;6.72;2.10;;;;;;;;;;5093051;28;20742;-88
2021/05/10 08:51:22;;;;;;;4.60;2.05;;;;;;;;;;5093127;28;20384;-86
2021/05/10 08:53:48;;;;;;;10.82;2.20;;;;;;;;;;5093272;28;20471;-87
2021/05/10 08:56:14;;;;;;;5.55;2.15;;;;;;;;;;5092257;28;20494;-86
2021/05/10 08:58:41;;;;;;;8.07;2.20;;;;;;;;;;5093046;28;20399;-88
2021/05/10 09:01:08;;;;;;;7.93;2.78;;;;;;;;;;5093145;28;20384;-86
2021/05/10 09:03:39;;;;;;;7.95;2.25;;;;;;;;;;5092075;28;20832;-87
2021/05/10 09:06:11;;;;;;;18.40;3.08;;;;;;;;;;5091790;28;20395;-84
2021/05/10 09:08:42;;;;;;;3.03;1.80;;;;;;;;;;5092610;28;20391;-84
2021/05/10 09:11:12;;;;;;;3.70;1.75;;;;;;;;;;5091390;28;20369;-83
2021/05/10 09:13:48;;;;;;;7.50;2.10;;;;;;;;;;5092596;28;20426;-84
2021/05/10 09:16:15;;;;;;;2.90;1.90;;;;;;;;;;5091486;28;20368;-80
2021/05/10 09:18:50;;;;;;;5.50;2.00;;;;;;;;;;5091503;28;20471;-84
2021/05/10 09:21:17;;;;;;;4.88;2.17;;;;;;;;;;5089766;28;20408;-83
2021/05/10 09:23:44;;;;;;;5.13;1.90;;;;;;;;;;5091740;28;20754;-81
2021/05/10 09:26:13;;;;;;;4.93;1.90;;;;;;;;;;5091919;28;20375;-88
2021/05/10 09:28:42;;;;;;;3.13;1.63;;;;;;;;;;5093360;28;20368;-84
2021/05/10 09:31:09;;;;;;;3.38;1.55;;;;;;;;;;5091989;28;20376;-88
2021/05/10 09:33:41;;;;;;;4.03;1.83;;;;;;;;;;5092292;28;20375;-85
2021/05/10 09:36:07;;;;;;;2.87;1.80;;;;;;;;;;5093631;28;20522;-89
2021/05/10 09:38:34;;;;;;;6.03;2.10;;;;;;;;;;5091857;28;20380;-86
2021/05/10 09:41:05;;;;;;;6.85;1.90;;;;;;;;;;5092052;28;20486;-86
2021/05/10 09:43:35;;;;;;;33.28;3.53;;;;;;;;;;5093085;28;20406;-88
2021/05/10 09:46:05;;;;;;;4.65;2.03;;;;;;;;;;5093201;28;20898;-87
2021/05/10 09:48:37;;;;;;;4.03;2.03;;;;;;;;;;5091850;28;20384;-86
2021/05/10 09:51:08;;;;;;;6.85;2.05;;;;;;;;;;5091635;28;20430;-87
2021/05/10 09:53:42;;;;;;;6.47;2.15;;;;;;;;;;5091775;28;20464;-88
2021/05/10 09:58:53;;;;;;;5.50;1.77;;;;;;;;;;5092895;28;20419;-86
2021/05/10 10:01:19;;;;;;;3.53;1.95;;;;;;;;;;5093092;28;20396;-86
2021/05/10 10:03:46;;;;;;;18.75;3.25;;;;;;;;;;5092158;28;20419;-88
2021/05/10 10:06:19;;;;;;;3.60;1.85;;;;;;;;;;5091118;28;20381;-87
2021/05/10 10:08:51;;;;;;;8.07;2.58;;;;;;;;;;5091264;28;20853;-87
2021/05/10 10:11:18;;;;;;;5.00;1.80;;;;;;;;;;5092671;28;20387;-86
2021/05/10 10:13:45;;;;;;;2.60;1.80;;;;;;;;;;5092513;28;20372;-85
2021/05/10 10:16:11;;;;;;;3.50;1.80;;;;;;;;;;5092051;28;20384;-84
2021/05/10 10:18:38;;;;;;;4.37;2.10;;;;;;;;;;5091923;28;20850;-86
2021/05/10 10:21:04;;;;;;;5.10;1.90;;;;;;;;;;5092842;28;20407;-86
2021/05/10 10:23:30;;;;;;;5.15;2.00;;;;;;;;;;5091206;28;20376;-85
2021/05/10 10:25:58;;;;;;;7.27;2.10;;;;;;;;;;5091633;28;20692;-87
2021/05/10 10:28:25;;;;;;;5.10;2.00;;;;;;;;;;5091773;28;20427;-87
2021/05/10 10:30:58;;;;;;;4.47;2.05;;;;;;;;;;5091468;28;20854;-86
2021/05/10 10:33:30;;;;;;;4.53;1.87;;;;;;;;;;5092950;28;20465;-88
2021/05/10 10:35:56;;;;;;;9.35;2.33;;;;;;;;;;5090865;28;20361;-90
2021/05/10 10:38:26;;;;;;;5.32;1.80;;;;;;;;;;5091451;28;20388;-88
2021/05/10 10:41:25;;;;;;;4.90;2.03;;;;;;;;;;5091649;28;20387;-88
2021/05/10 10:43:51;;;;;;;3.20;2.20;;;;;;;;;;5057926;28;20449;-90
2021/05/10 10:46:18;;;;;;;3.70;2.00;;;;;;;;;;5089878;28;20834;-89
2021/05/10 10:48:48;;;;;;;4.35;2.10;;;;;;;;;;5091243;28;20372;-86
2021/05/10 10:51:15;;;;;;;4.38;1.90;;;;;;;;;;5091455;28;20392;-86
2021/05/10 10:53:44;;;;;;;3.88;2.00;;;;;;;;;;5089828;28;20387;-86
2021/05/10 10:56:10;;;;;;;3.80;2.00;;;;;;;;;;5091565;28;20477;-89
2021/05/10 10:58:39;;;;;;;3.92;1.90;;;;;;;;;;5091522;28;20364;-89
2021/05/10 11:01:13;;;;;;;4.15;1.90;;;;;;;;;;5087716;28;20407;-88
2021/05/10 11:03:40;;;;;;;5.05;2.05;;;;;;;;;;5090283;28;20396;-85
2021/05/10 11:06:07;;;;;;;4.05;1.83;;;;;;;;;;5090464;28;20369;-87
2021/05/10 11:08:46;;;;;;;12.17;2.30;;;;;;;;;;5090363;28;20406;-89
2021/05/10 11:11:30;;;;;;;2.67;1.60;;;;;;;;;;5090620;28;20357;-88
2021/05/10 11:13:58;;;;;;;2.97;1.70;;;;;;;;;;5091510;28;20387;-85
2021/05/10 11:16:43;;;;;;;27.70;3.70;;;;;;;;;;5090101;28;20873;-88
2021/05/10 11:19:28;;;;;;;36.80;3.97;;;;;;;;;;5090498;28;20850;-84
2021/05/10 11:21:55;;;;;;;7.53;2.40;;;;;;;;;;5089980;28;20448;-85
2021/05/10 11:24:25;;;;;;;3.50;2.00;;;;;;;;;;5090637;28;20369;-87
2021/05/10 11:26:52;;;;;;;16.33;2.75;;;;;;;;;;5091108;28;20365;-87
2021/05/10 11:29:28;;;;;;;56.38;5.72;;;;;;;;;;5089710;28;20420;-86
2021/05/10 11:31:55;;;;;;;20.27;3.30;;;;;;;;;;5089682;28;20388;-86
2021/05/10 11:34:38;;;;;;;4.93;1.73;;;;;;;;;;5090169;28;20467;-86
2021/05/10 11:37:06;;;;;;;8.73;2.00;;;;;;;;;;5090040;28;20368;-87
2021/05/10 11:39:33;;;;;;;6.30;2.00;;;;;;;;;;5089178;28;20394;-83
2021/05/10 11:42:02;;;;;;;4.93;2.20;;;;;;;;;;5088828;28;20407;-82
2021/05/10 11:44:45;;;;;;;3.85;1.85;;;;;;;;;;5090700;28;20854;-85
2021/05/10 11:47:14;;;;;;;3.25;1.90;;;;;;;;;;5089826;28;20380;-84
2021/05/10 11:49:42;;;;;;;3.10;1.50;;;;;;;;;;5089217;28;20809;-83
2021/05/10 11:52:09;;;;;;;3.33;1.73;;;;;;;;;;5084961;28;20392;-81
2021/05/10 11:54:35;;;;;;;3.53;1.80;;;;;;;;;;5088965;28;20433;-82
2021/05/10 11:57:03;;;;;;;14.30;2.55;;;;;;;;;;5089605;28;20364;-81
2021/05/10 11:59:49;;;;;;;6.63;1.98;;;;;;;;;;5078207;28;21069;-81
2021/05/10 12:02:28;;;;;;;48.42;5.53;;;;;;;;;;5067037;28;20410;-86
2021/05/10 12:05:00;;;;;;;6.45;1.63;;;;;;;;;;5067759;28;20851;-88
2021/05/10 12:07:27;;;;;;;3.95;1.70;;;;;;;;;;5068211;28;20370;-83
2021/05/10 12:09:59;;;;;;;2.15;1.65;;;;;;;;;;5072755;28;20878;-82
2021/05/10 12:12:28;;;;;;;5.65;1.75;;;;;;;;;;5088552;28;20395;-82
2021/05/10 12:14:55;;;;;;;2.75;1.40;;;;;;;;;;5081346;28;20421;-81
2021/05/10 12:17:26;;;;;;;3.72;1.75;;;;;;;;;;5069793;28;20378;-83
2021/05/10 12:20:07;;;;;;;4.43;2.00;;;;;;;;;;5080088;28;20845;-88
2021/05/10 12:22:38;;;;;;;3.87;1.67;;;;;;;;;;5088925;28;20893;-85
2021/05/10 12:25:06;;;;;;;9.83;2.10;;;;;;;;;;5071958;28;20907;-86
2021/05/10 12:27:36;;;;;;;3.60;1.70;;;;;;;;;;5085977;28;20384;-86
2021/05/10 12:30:02;;;;;;;15.37;2.50;;;;;;;;;;5075647;28;20450;-82
2021/05/10 12:32:28;;;;;;;5.75;1.80;;;;;;;;;;5073499;28;20388;-84
2021/05/10 12:34:54;;;;;;;2.72;1.90;;;;;;;;;;5070231;28;20378;-82
2021/05/10 12:37:20;;;;;;;4.50;1.70;;;;;;;;;;5069624;28;20366;-85
2021/05/10 12:39:47;;;;;;;4.70;1.70;;;;;;;;;;5070767;28;20377;-83
2021/05/10 12:42:20;;;;;;;3.30;1.90;;;;;;;;;;5069718;28;20424;-85
2021/05/10 12:44:59;;;;;;;2.00;1.60;;;;;;;;;;5069373;28;20373;-84
2021/05/10 12:47:40;;;;;;;3.20;1.60;;;;;;;;;;5069645;28;20377;-84
2021/05/10 12:50:07;;;;;;;2.53;1.33;;;;;;;;;;5069999;28;20366;-83
2021/05/10 12:52:49;;;;;;;4.47;1.60;;;;;;;;;;5070049;28;20851;-84
2021/05/10 12:55:20;;;;;;;3.00;1.65;;;;;;;;;;5073981;28;20600;-86
2021/05/10 12:57:46;;;;;;;2.92;1.55;;;;;;;;;;5091184;28;20434;-83
2021/05/10 13:00:31;;;;;;;6.88;1.52;;;;;;;;;;5093647;28;20380;-84
2021/05/10 13:02:57;;;;;;;3.47;1.73;;;;;;;;;;5092436;28;20396;-86
2021/05/10 13:05:42;;;;;;;5.60;1.80;;;;;;;;;;5092025;28;20380;-84
2021/05/10 13:08:11;;;;;;;3.13;1.73;;;;;;;;;;5092094;28;20380;-85
2021/05/10 13:10:38;;;;;;;3.58;1.65;;;;;;;;;;5092602;28;20388;-87
2021/05/10 13:13:10;;;;;;;5.10;1.60;;;;;;;;;;5081996;28;20385;-83
2021/05/10 13:15:51;;;;;;;2.22;1.38;;;;;;;;;;5087647;28;20379;-84
2021/05/10 13:18:33;;;;;;;3.10;1.80;;;;;;;;;;5093029;28;20467;-86
2021/05/10 13:31:48;;;;;;;5.38;1.98;;;;;;;;;;5079019;28;20441;-84
2021/05/10 13:36:45;;;;;;;3.40;1.92;;;;;;;;;;5083830;28;20386;-84
2021/05/10 13:39:14;;;;;;;3.80;1.80;;;;;;;;;;5072185;28;20926;-84
2021/05/10 13:41:48;;;;;;;3.40;1.50;;;;;;;;;;5072574;28;20402;-82
2021/05/10 13:44:14;;;;;;;2.27;1.50;;;;;;;;;;5072608;28;20861;-85
2021/05/10 13:46:41;;;;;;;4.43;1.88;;;;;;;;;;5072312;28;20373;-85
2021/05/10 13:49:07;;;;;;;4.35;1.70;;;;;;;;;;5072875;28;20389;-86
2021/05/10 13:51:34;;;;;;;4.32;1.77;;;;;;;;;;5072170;28;20851;-85
2021/05/10 13:54:00;;;;;;;7.53;2.03;;;;;;;;;;5072120;28;20822;-85
2021/05/10 13:56:27;;;;;;;28.50;4.20;;;;;;;;;;5072343;28;20366;-85
2021/05/10 13:58:53;;;;;;;6.40;1.75;;;;;;;;;;5083411;28;20379;-84
2021/05/10 14:01:20;;;;;;;5.38;1.98;;;;;;;;;;5091583;28;20396;-85
2021/05/10 14:03:46;;;;;;;3.40;2.00;;;;;;;;;;5089196;28;20409;-85
2021/05/10 14:06:13;;;;;;;4.18;2.10;;;;;;;;;;5088941;28;20372;-84
2021/05/10 14:08:40;;;;;;;4.35;1.67;;;;;;;;;;5090661;28;20372;-86
2021/05/10 14:11:07;;;;;;;6.72;2.28;;;;;;;;;;5090238;28;20379;-83
2021/05/10 14:13:33;;;;;;;5.68;2.08;;;;;;;;;;5092209;28;20471;-84
2021/05/10 14:16:00;;;;;;;4.10;1.83;;;;;;;;;;5091570;28;20404;-84
2021/05/10 14:18:28;;;;;;;6.25;1.95;;;;;;;;;;5090751;28;20901;-84
2021/05/10 14:23:39;;;;;;;8.57;2.28;;;;;;;;;;5091947;28;20379;-86
2021/05/10 14:26:06;;;;;;;3.07;2.00;;;;;;;;;;5090815;28;20865;-85
2021/05/10 14:28:37;;;;;;;6.18;1.95;;;;;;;;;;5091908;28;20372;-85
2021/05/10 14:31:03;;;;;;;7.07;2.00;;;;;;;;;;5091881;28;20372;-85
2021/05/10 14:33:30;;;;;;;4.00;2.00;;;;;;;;;;5091452;28;20479;-84
2021/05/10 14:35:56;;;;;;;3.37;1.77;;;;;;;;;;5091743;28;20375;-84
2021/05/10 14:38:23;;;;;;;5.55;1.88;;;;;;;;;;5091686;28;20376;-86
2021/05/10 14:40:49;;;;;;;3.95;1.80;;;;;;;;;;5092107;28;20459;-83
2021/05/10 14:43:15;;;;;;;4.95;1.92;;;;;;;;;;5092005;28;20396;-88
2021/05/10 14:45:41;;;;;;;5.63;2.10;;;;;;;;;;5090289;28;20475;-84
2021/05/10 14:48:07;;;;;;;3.50;1.75;;;;;;;;;;5091558;28;20439;-85
2021/05/10 14:50:33;;;;;;;5.93;2.17;;;;;;;;;;5091681;28;20369;-84
2021/05/10 14:52:59;;;;;;;8.18;2.08;;;;;;;;;;5091537;28;20368;-84
2021/05/10 14:55:25;;;;;;;4.15;1.70;;;;;;;;;;5090162;28;20483;-83
2021/05/10 14:57:51;;;;;;;8.10;2.10;;;;;;;;;;5088842;28;20818;-83
2021/05/10 15:00:17;;;;;;;6.07;1.88;;;;;;;;;;5086895;28;20426;-84
2021/05/10 15:02:43;;;;;;;8.27;2.55;;;;;;;;;;5090697;28;20404;-81
2021/05/10 15:05:10;;;;;;;6.85;2.22;;;;;;;;;;5091228;28;20459;-84
2021/05/10 15:07:36;;;;;;;4.43;1.92;;;;;;;;;;5090873;28;20381;-82